Time;durP1;ratioP1;P1;durP2;ratioP2;P2;SDS_P1;SDS_P2;PMS_P1;PMS_P2;Temp;Humidity;BMP_temperature;BMP_pressure;BME280_temperature;BME280_humidity;BME280_pressure;Samples;Min_cycle;Max_cycle;Signal;HPM_P1;HPM_P2
2022/09/25 00:01:46;;;;;;;14.90;13.40;;;;;;;;;;5060913;28;20025;-79
2022/09/25 00:04:11;;;;;;;13.10;11.85;;;;;;;;;;5059982;28;20039;-76
2022/09/25 00:06:38;;;;;;;14.68;13.13;;;;;;;;;;5058634;28;20024;-77
2022/09/25 00:09:03;;;;;;;16.73;12.68;;;;;;;;;;5053682;28;20349;-77
2022/09/25 00:11:30;;;;;;;13.45;12.05;;;;;;;;;;5043230;28;22421;-77
2022/09/25 00:13:56;;;;;;;14.25;12.40;;;;;;;;;;5041100;28;20047;-78
2022/09/25 00:16:23;;;;;;;16.38;12.32;;;;;;;;;;5042186;28;20395;-78
2022/09/25 00:21:33;;;;;;;25.25;20.85;;;;;;;;;;5061550;28;20047;-79
2022/09/25 00:24:00;;;;;;;36.15;24.08;;;;;;;;;;5060419;28;20029;-78
2022/09/25 00:26:27;;;;;;;29.08;20.45;;;;;;;;;;5061051;28;20749;-78
2022/09/25 00:28:53;;;;;;;22.17;17.35;;;;;;;;;;5049125;28;20036;-77
2022/09/25 00:31:23;;;;;;;25.63;20.40;;;;;;;;;;5050072;28;20409;-78
2022/09/25 00:33:48;;;;;;;22.55;19.58;;;;;;;;;;5052791;28;20020;-78
2022/09/25 00:36:14;;;;;;;21.75;18.65;;;;;;;;;;5062697;28;20039;-77
2022/09/25 00:38:39;;;;;;;20.13;16.27;;;;;;;;;;5062091;28;20032;-78
2022/09/25 00:41:05;;;;;;;17.10;13.93;;;;;;;;;;5060455;28;20576;-77
2022/09/25 00:43:38;;;;;;;18.65;14.02;;;;;;;;;;5057856;28;20431;-77
2022/09/25 00:46:16;;;;;;;17.83;15.02;;;;;;;;;;5048813;28;20055;-78
2022/09/25 00:48:47;;;;;;;17.98;14.30;;;;;;;;;;5057903;28;20035;-78
2022/09/25 00:51:13;;;;;;;15.18;13.15;;;;;;;;;;5060863;28;20077;-78
2022/09/25 00:53:39;;;;;;;13.02;11.45;;;;;;;;;;5061053;28;20090;-78
2022/09/25 00:56:06;;;;;;;17.48;12.98;;;;;;;;;;5047254;28;20024;-77
2022/09/25 00:58:32;;;;;;;19.27;14.00;;;;;;;;;;5052298;28;20040;-77
2022/09/25 01:00:58;;;;;;;20.48;16.05;;;;;;;;;;5047935;28;20104;-76
2022/09/25 01:03:25;;;;;;;33.85;22.40;;;;;;;;;;5058708;28;20100;-78
2022/09/25 01:05:51;;;;;;;30.38;25.85;;;;;;;;;;5057544;28;20036;-78
2022/09/25 01:08:22;;;;;;;30.65;25.17;;;;;;;;;;5060739;28;20021;-78
2022/09/25 01:10:47;;;;;;;27.58;23.33;;;;;;;;;;5060209;28;20048;-77
2022/09/25 01:13:13;;;;;;;32.00;25.40;;;;;;;;;;5059330;28;20056;-78
2022/09/25 01:15:39;;;;;;;26.00;20.30;;;;;;;;;;5047377;28;20016;-79
2022/09/25 01:18:27;;;;;;;24.08;20.38;;;;;;;;;;5059100;28;20020;-77
2022/09/25 01:20:52;;;;;;;21.33;17.85;;;;;;;;;;5047322;28;20045;-77
2022/09/25 01:23:47;;;;;;;18.55;16.55;;;;;;;;;;5059499;28;20028;-79
2022/09/25 01:26:31;;;;;;;26.30;16.88;;;;;;;;;;4979197;28;20038;-77
2022/09/25 01:29:04;;;;;;;20.73;17.27;;;;;;;;;;4975726;28;20454;-79
2022/09/25 01:31:49;;;;;;;17.17;15.38;;;;;;;;;;4967631;28;20497;-78
2022/09/25 01:34:19;;;;;;;20.73;16.88;;;;;;;;;;4978443;28;20042;-77
2022/09/25 01:36:50;;;;;;;25.27;19.38;;;;;;;;;;4969371;28;20458;-78
2022/09/25 01:39:26;;;;;;;39.83;31.88;;;;;;;;;;4977201;28;20026;-77
2022/09/25 01:41:57;;;;;;;41.70;29.95;;;;;;;;;;4978683;28;20416;-77
2022/09/25 01:44:27;;;;;;;37.05;28.60;;;;;;;;;;4977434;28;21149;-78
2022/09/25 01:46:54;;;;;;;33.83;26.10;;;;;;;;;;4980340;28;20070;-78
2022/09/25 01:49:20;;;;;;;29.35;23.20;;;;;;;;;;4969008;28;20035;-78
2022/09/25 01:51:53;;;;;;;25.73;22.35;;;;;;;;;;4977589;28;20349;-78
2022/09/25 01:54:24;;;;;;;27.13;21.17;;;;;;;;;;4977978;28;20438;-77
2022/09/25 01:56:53;;;;;;;12.93;10.82;;;;;;;;;;4979401;28;20053;-77
2022/09/25 01:59:24;;;;;;;9.88;8.90;;;;;;;;;;4967434;28;20038;-78
2022/09/25 02:01:50;;;;;;;20.15;16.48;;;;;;;;;;4989637;28;20619;-78
2022/09/25 02:04:21;;;;;;;16.75;14.90;;;;;;;;;;5049186;28;20028;-78
2022/09/25 02:06:48;;;;;;;17.77;14.55;;;;;;;;;;5056315;28;20041;-77
2022/09/25 02:09:32;;;;;;;19.25;16.90;;;;;;;;;;5059286;28;20043;-78
2022/09/25 02:12:01;;;;;;;18.13;16.23;;;;;;;;;;5058453;28;20028;-77
2022/09/25 02:14:28;;;;;;;15.88;14.27;;;;;;;;;;5047047;28;20077;-77
2022/09/25 02:16:56;;;;;;;17.00;15.20;;;;;;;;;;5055469;28;20156;-78
2022/09/25 02:22:16;;;;;;;17.73;14.45;;;;;;;;;;5053561;28;20399;-76
2022/09/25 02:24:56;;;;;;;15.30;12.88;;;;;;;;;;5056892;28;20035;-76
2022/09/25 02:27:23;;;;;;;12.68;11.38;;;;;;;;;;5039641;28;20048;-76
2022/09/25 02:29:49;;;;;;;14.02;12.48;;;;;;;;;;5059960;28;20021;-77
2022/09/25 02:32:16;;;;;;;14.30;12.80;;;;;;;;;;5056810;28;20032;-77
2022/09/25 02:34:41;;;;;;;10.98;9.88;;;;;;;;;;5059725;28;20107;-78
2022/09/25 02:37:16;;;;;;;10.40;9.38;;;;;;;;;;5060774;28;20131;-77
2022/09/25 02:39:43;;;;;;;9.93;8.20;;;;;;;;;;5059963;28;20095;-78
2022/09/25 02:42:24;;;;;;;10.77;9.07;;;;;;;;;;5059439;28;20048;-78
2022/09/25 02:45:05;;;;;;;12.45;11.18;;;;;;;;;;5042530;28;20094;-78
2022/09/25 02:47:31;;;;;;;11.30;9.38;;;;;;;;;;5058628;28;20032;-78
2022/09/25 02:50:12;;;;;;;12.10;10.80;;;;;;;;;;5060691;28;20086;-77
2022/09/25 02:52:56;;;;;;;12.70;11.40;;;;;;;;;;5059843;28;20644;-77
2022/09/25 02:55:47;;;;;;;16.55;13.98;;;;;;;;;;5047496;28;20117;-77
2022/09/25 02:58:12;;;;;;;15.02;12.93;;;;;;;;;;4974888;28;20164;-77
2022/09/25 03:00:39;;;;;;;14.50;11.88;;;;;;;;;;4977911;28;20393;-78
2022/09/25 03:03:07;;;;;;;11.23;10.13;;;;;;;;;;4978911;28;20101;-78
2022/09/25 03:05:32;;;;;;;37.42;33.38;;;;;;;;;;4976251;28;20149;-78
2022/09/25 03:10:45;;;;;;;22.60;20.23;;;;;;;;;;4977016;28;20045;-77
2022/09/25 03:13:13;;;;;;;17.75;15.75;;;;;;;;;;4978398;28;20353;-76
2022/09/25 03:15:40;;;;;;;16.00;13.37;;;;;;;;;;4978879;28;20086;-75
2022/09/25 03:18:06;;;;;;;19.00;14.93;;;;;;;;;;4978331;28;20023;-77
2022/09/25 03:20:31;;;;;;;23.23;20.73;;;;;;;;;;4977943;28;20354;-77
2022/09/25 03:22:56;;;;;;;15.48;13.90;;;;;;;;;;4976580;28;20044;-78
2022/09/25 03:25:22;;;;;;;13.90;11.45;;;;;;;;;;4978340;28;20077;-76
2022/09/25 03:27:47;;;;;;;9.65;8.75;;;;;;;;;;4980079;28;20042;-76
2022/09/25 03:30:12;;;;;;;9.35;8.35;;;;;;;;;;4975953;28;21208;-77
2022/09/25 03:32:40;;;;;;;9.20;8.30;;;;;;;;;;4975514;28;20046;-76
2022/09/25 03:35:06;;;;;;;7.95;7.25;;;;;;;;;;5022670;28;20048;-76
2022/09/25 03:37:32;;;;;;;8.75;7.53;;;;;;;;;;5059998;28;20102;-76
2022/09/25 03:39:57;;;;;;;8.25;7.45;;;;;;;;;;5060031;28;20111;-77
2022/09/25 03:42:27;;;;;;;10.23;9.32;;;;;;;;;;5059885;28;20460;-76
2022/09/25 03:44:52;;;;;;;11.70;9.85;;;;;;;;;;5058100;28;20045;-77
2022/09/25 03:47:17;;;;;;;12.73;10.40;;;;;;;;;;5058113;28;20922;-79
2022/09/25 03:49:43;;;;;;;15.50;11.25;;;;;;;;;;5058838;28;20102;-78
2022/09/25 03:52:13;;;;;;;12.88;10.40;;;;;;;;;;5057548;28;20020;-78
2022/09/25 03:54:39;;;;;;;12.25;10.98;;;;;;;;;;5055501;28;20028;-78
2022/09/25 03:57:04;;;;;;;11.20;10.07;;;;;;;;;;5062935;28;20077;-77
2022/09/25 03:59:30;;;;;;;12.00;10.80;;;;;;;;;;5059953;28;20051;-78
2022/09/25 04:01:55;;;;;;;9.90;8.90;;;;;;;;;;5060146;28;20139;-77
2022/09/25 04:04:21;;;;;;;10.20;9.20;;;;;;;;;;5061297;28;20033;-77
2022/09/25 04:06:47;;;;;;;9.60;8.25;;;;;;;;;;5064238;28;20051;-77
2022/09/25 04:09:12;;;;;;;9.55;8.48;;;;;;;;;;5062997;28;20863;-78
2022/09/25 04:11:37;;;;;;;9.55;8.55;;;;;;;;;;5055951;28;20074;-76
2022/09/25 04:14:03;;;;;;;10.98;9.85;;;;;;;;;;5048369;28;20504;-79
2022/09/25 04:16:29;;;;;;;10.80;9.70;;;;;;;;;;5061385;28;20033;-78
2022/09/25 04:18:54;;;;;;;11.00;9.77;;;;;;;;;;5062870;28;20039;-77
2022/09/25 04:21:19;;;;;;;13.43;9.55;;;;;;;;;;5064426;28;20025;-78
2022/09/25 04:24:47;;;;;;;9.13;8.25;;;;;;;;;;5062090;28;20500;-78
2022/09/25 04:26:31;;;;;;;11.23;9.27;;;;;;;;;;5061962;28;20114;-78
2022/09/25 04:28:56;;;;;;;12.40;10.30;;;;;;;;;;5060802;28;20037;-76
2022/09/25 04:31:22;;;;;;;9.32;8.43;;;;;;;;;;5062502;28;20029;-77
2022/09/25 04:33:47;;;;;;;11.02;9.05;;;;;;;;;;5044276;28;20063;-79
2022/09/25 04:36:13;;;;;;;14.55;12.63;;;;;;;;;;5062325;28;20029;-78
2022/09/25 04:38:39;;;;;;;13.65;11.70;;;;;;;;;;5052602;28;20068;-77
2022/09/25 04:41:05;;;;;;;48.65;33.58;;;;;;;;;;5038203;28;20106;-77
2022/09/25 04:43:31;;;;;;;72.60;50.78;;;;;;;;;;5038533;28;20069;-76
2022/09/25 04:46:03;;;;;;;44.97;33.42;;;;;;;;;;5044486;28;20428;-78
2022/09/25 04:48:29;;;;;;;40.92;29.98;;;;;;;;;;5043097;28;20043;-77
2022/09/25 04:50:54;;;;;;;68.45;46.95;;;;;;;;;;5043264;28;20429;-73
2022/09/25 04:53:20;;;;;;;191.20;132.82;;;;;;;;;;5041619;28;20079;-78
2022/09/25 04:55:46;;;;;;;74.63;53.33;;;;;;;;;;5042103;28;20024;-77
2022/09/25 04:58:12;;;;;;;24.55;21.92;;;;;;;;;;5047870;28;20020;-74
2022/09/25 05:00:39;;;;;;;41.80;31.45;;;;;;;;;;5055243;28;20437;-73
2022/09/25 05:03:05;;;;;;;18.67;15.23;;;;;;;;;;5044887;28;20544;-73
2022/09/25 05:05:30;;;;;;;13.80;11.93;;;;;;;;;;5058948;28;20040;-75
2022/09/25 05:07:57;;;;;;;11.90;10.73;;;;;;;;;;5057592;28;20036;-72
2022/09/25 05:10:23;;;;;;;15.90;13.75;;;;;;;;;;5057831;28;20029;-75
2022/09/25 05:12:53;;;;;;;16.08;13.75;;;;;;;;;;5047840;28;20028;-72
2022/09/25 05:15:19;;;;;;;13.50;11.60;;;;;;;;;;5050588;28;20135;-74
2022/09/25 05:17:44;;;;;;;14.40;12.13;;;;;;;;;;5041771;28;20025;-75
2022/09/25 05:20:10;;;;;;;13.77;11.02;;;;;;;;;;5055596;28;20059;-75
2022/09/25 05:22:35;;;;;;;13.00;11.55;;;;;;;;;;5036927;28;20021;-73
2022/09/25 05:25:00;;;;;;;19.23;17.27;;;;;;;;;;5040661;28;20719;-73
2022/09/25 05:27:26;;;;;;;21.15;14.77;;;;;;;;;;5060653;28;20439;-73
2022/09/25 05:29:51;;;;;;;18.75;16.95;;;;;;;;;;5056943;28;20029;-74
2022/09/25 05:32:17;;;;;;;16.05;14.35;;;;;;;;;;5056674;28;20162;-77
2022/09/25 05:34:43;;;;;;;13.13;11.77;;;;;;;;;;5041688;28;20157;-72
2022/09/25 05:37:08;;;;;;;11.77;10.52;;;;;;;;;;5039635;28;20149;-72
2022/09/25 05:39:33;;;;;;;17.58;15.77;;;;;;;;;;5040864;28;20025;-73
2022/09/25 05:42:00;;;;;;;16.70;14.32;;;;;;;;;;5060164;28;20020;-74
2022/09/25 05:44:27;;;;;;;22.98;20.67;;;;;;;;;;5056577;28;20040;-74
2022/09/25 05:46:55;;;;;;;16.83;15.23;;;;;;;;;;5048328;28;20056;-75
2022/09/25 05:49:20;;;;;;;20.25;18.25;;;;;;;;;;5036492;28;20467;-75
2022/09/25 05:51:47;;;;;;;18.58;16.75;;;;;;;;;;5035807;28;20044;-76
2022/09/25 05:54:12;;;;;;;15.57;13.98;;;;;;;;;;5033968;28;20033;-77
2022/09/25 05:56:38;;;;;;;16.85;13.75;;;;;;;;;;5037268;28;20043;-75
2022/09/25 05:59:03;;;;;;;19.45;13.73;;;;;;;;;;5049202;28;20028;-74
2022/09/25 06:01:28;;;;;;;18.95;13.50;;;;;;;;;;5033614;28;20075;-75
2022/09/25 06:03:54;;;;;;;19.65;14.63;;;;;;;;;;5037856;28;20072;-72
2022/09/25 06:06:19;;;;;;;15.32;12.88;;;;;;;;;;5036071;28;20044;-74
2022/09/25 06:08:44;;;;;;;47.90;27.90;;;;;;;;;;5039520;28;20074;-72
2022/09/25 06:11:10;;;;;;;30.83;21.65;;;;;;;;;;5055085;28;20110;-73
2022/09/25 06:13:36;;;;;;;74.43;59.60;;;;;;;;;;5042181;28;20028;-72
2022/09/25 06:16:04;;;;;;;49.20;33.97;;;;;;;;;;5052558;28;20033;-73
2022/09/25 06:18:30;;;;;;;30.08;22.77;;;;;;;;;;5057936;28;20028;-73
2022/09/25 06:20:59;;;;;;;23.92;17.90;;;;;;;;;;5037959;28;20116;-72
2022/09/25 06:23:24;;;;;;;27.45;20.75;;;;;;;;;;5047601;28;20032;-71
2022/09/25 06:25:49;;;;;;;27.77;23.88;;;;;;;;;;5039142;28;20041;-73
2022/09/25 06:28:15;;;;;;;27.33;24.35;;;;;;;;;;5040746;28;20021;-73
2022/09/25 06:30:40;;;;;;;21.30;17.13;;;;;;;;;;5054635;28;20028;-76
2022/09/25 06:33:10;;;;;;;27.40;21.30;;;;;;;;;;5035251;28;20071;-72
2022/09/25 06:35:39;;;;;;;21.55;17.83;;;;;;;;;;5033955;28;20037;-73
2022/09/25 06:38:04;;;;;;;41.88;28.45;;;;;;;;;;5035846;28;20017;-72
2022/09/25 06:40:30;;;;;;;36.75;26.27;;;;;;;;;;5036591;28;20035;-73
2022/09/25 06:42:59;;;;;;;30.98;22.38;;;;;;;;;;5037336;28;20032;-73
2022/09/25 06:45:25;;;;;;;35.07;24.23;;;;;;;;;;5033788;28;20075;-73
2022/09/25 06:47:53;;;;;;;23.73;18.63;;;;;;;;;;5037271;28;20100;-72
2022/09/25 06:50:19;;;;;;;28.23;24.58;;;;;;;;;;5044487;28;20130;-74
2022/09/25 06:52:44;;;;;;;15.38;13.15;;;;;;;;;;5059710;28;20062;-72
2022/09/25 06:55:10;;;;;;;16.92;12.88;;;;;;;;;;5057180;28;20040;-70
2022/09/25 06:57:36;;;;;;;20.40;16.40;;;;;;;;;;5057728;28;20431;-72
2022/09/25 07:00:05;;;;;;;27.55;19.85;;;;;;;;;;5055385;28;20036;-73
2022/09/25 07:05:17;;;;;;;15.98;10.80;;;;;;;;;;5055879;28;20044;-74
2022/09/25 07:07:43;;;;;;;11.18;9.25;;;;;;;;;;5054924;28;20345;-74
2022/09/25 07:10:08;;;;;;;17.88;12.80;;;;;;;;;;5055738;28;20035;-74
2022/09/25 07:12:33;;;;;;;17.88;13.32;;;;;;;;;;5055588;28;20036;-74
2022/09/25 07:14:59;;;;;;;9.27;7.88;;;;;;;;;;5047111;28;20162;-74
2022/09/25 07:17:24;;;;;;;13.13;10.07;;;;;;;;;;5043844;28;20040;-75
2022/09/25 07:19:49;;;;;;;9.35;8.32;;;;;;;;;;5056499;28;20024;-74
2022/09/25 07:22:15;;;;;;;13.02;7.55;;;;;;;;;;5055868;28;20024;-74
2022/09/25 07:24:40;;;;;;;8.93;6.90;;;;;;;;;;5056718;28;20033;-74
2022/09/25 07:27:05;;;;;;;9.80;8.88;;;;;;;;;;5056648;28;20024;-73
2022/09/25 07:29:31;;;;;;;13.05;9.55;;;;;;;;;;5060202;28;20115;-73
2022/09/25 07:31:56;;;;;;;10.25;8.80;;;;;;;;;;5059763;28;20028;-73
2022/09/25 07:34:22;;;;;;;7.20;6.43;;;;;;;;;;5061180;28;20069;-73
2022/09/25 07:36:47;;;;;;;7.88;6.22;;;;;;;;;;5056027;28;20025;-73
2022/09/25 07:39:13;;;;;;;13.50;10.43;;;;;;;;;;5038299;28;20029;-74
2022/09/25 07:41:38;;;;;;;10.02;7.90;;;;;;;;;;5039414;28;20437;-74
2022/09/25 07:44:04;;;;;;;5.68;4.93;;;;;;;;;;5038596;28;20025;-74
2022/09/25 07:46:30;;;;;;;5.05;4.55;;;;;;;;;;5039686;28;20036;-75
2022/09/25 07:48:55;;;;;;;4.82;4.38;;;;;;;;;;5041002;28;20036;-73
2022/09/25 07:51:21;;;;;;;6.00;4.45;;;;;;;;;;5037032;28;20032;-74
2022/09/25 07:53:46;;;;;;;5.22;4.47;;;;;;;;;;5038175;28;20582;-75
2022/09/25 07:56:12;;;;;;;9.50;8.52;;;;;;;;;;5038411;28;20085;-74
2022/09/25 07:58:37;;;;;;;8.63;6.95;;;;;;;;;;5039760;28;20039;-74
2022/09/25 08:01:04;;;;;;;8.85;7.90;;;;;;;;;;5047329;28;20051;-74
2022/09/25 08:03:29;;;;;;;15.00;13.48;;;;;;;;;;5059800;28;20714;-75
2022/09/25 08:05:58;;;;;;;10.77;9.68;;;;;;;;;;5057998;28;20044;-74
2022/09/25 08:08:24;;;;;;;15.38;13.45;;;;;;;;;;5059150;28;20035;-75
2022/09/25 08:10:50;;;;;;;8.48;7.57;;;;;;;;;;5056080;28;20032;-75
2022/09/25 08:13:19;;;;;;;7.50;6.60;;;;;;;;;;5039263;28;20044;-75
2022/09/25 08:15:45;;;;;;;5.60;5.00;;;;;;;;;;5035907;28;20036;-75
2022/09/25 08:18:10;;;;;;;10.75;6.25;;;;;;;;;;5052756;28;20423;-75
2022/09/25 08:20:38;;;;;;;7.55;5.82;;;;;;;;;;5037173;28;20108;-76
2022/09/25 08:23:04;;;;;;;6.78;6.00;;;;;;;;;;5059811;28;20028;-74
2022/09/25 08:25:29;;;;;;;4.80;4.32;;;;;;;;;;5060074;28;20343;-75
2022/09/25 08:27:55;;;;;;;12.45;11.25;;;;;;;;;;5059037;28;20025;-73
2022/09/25 08:30:20;;;;;;;16.45;14.75;;;;;;;;;;5042222;28;20066;-76
2022/09/25 08:32:45;;;;;;;7.57;6.93;;;;;;;;;;5057697;28;20024;-75
2022/09/25 08:35:11;;;;;;;12.02;10.77;;;;;;;;;;5058882;28;20302;-75
2022/09/25 08:37:40;;;;;;;7.53;6.82;;;;;;;;;;5057699;28;20130;-75
2022/09/25 08:40:06;;;;;;;14.05;11.93;;;;;;;;;;5059911;28;20032;-75
2022/09/25 08:42:34;;;;;;;38.17;26.73;;;;;;;;;;5056551;28;20020;-77
2022/09/25 08:50:32;;;;;;;13.00;10.35;;;;;;;;;;5059503;28;20043;-75
2022/09/25 08:53:33;;;;;;;16.55;13.18;;;;;;;;;;5059902;28;20016;-76
2022/09/25 08:56:14;;;;;;;5.47;4.68;;;;;;;;;;4964831;28;20393;-77
2022/09/25 08:58:44;;;;;;;5.53;4.75;;;;;;;;;;4980725;28;20128;-75
2022/09/25 09:01:15;;;;;;;6.03;4.95;;;;;;;;;;4981085;28;20038;-75
2022/09/25 09:03:45;;;;;;;6.78;4.90;;;;;;;;;;4980148;28;20079;-72
2022/09/25 09:06:13;;;;;;;6.40;4.40;;;;;;;;;;4978987;28;20030;-75
2022/09/25 09:08:39;;;;;;;4.55;3.58;;;;;;;;;;4979610;28;20133;-74
2022/09/25 09:11:11;;;;;;;4.90;3.90;;;;;;;;;;4978912;28;20467;-74
2022/09/25 09:13:51;;;;;;;6.13;5.53;;;;;;;;;;4979078;28;20030;-74
2022/09/25 09:16:25;;;;;;;10.70;9.57;;;;;;;;;;4978911;28;20113;-71
2022/09/25 09:18:51;;;;;;;11.60;8.80;;;;;;;;;;4979264;28;20037;-74
2022/09/25 09:21:36;;;;;;;4.47;3.88;;;;;;;;;;4974756;28;20093;-75
2022/09/25 09:24:07;;;;;;;5.05;3.95;;;;;;;;;;4975256;28;20045;-76
2022/09/25 09:26:38;;;;;;;3.13;2.83;;;;;;;;;;4979708;28;20030;-75
2022/09/25 09:29:13;;;;;;;5.18;3.75;;;;;;;;;;4988047;28;20038;-75
2022/09/25 09:32:01;;;;;;;7.82;5.20;;;;;;;;;;5058421;28;20077;-74
2022/09/25 09:34:45;;;;;;;4.10;3.53;;;;;;;;;;5029487;28;20451;-74
2022/09/25 09:37:18;;;;;;;9.13;8.20;;;;;;;;;;5057997;28;20035;-75
2022/09/25 09:39:43;;;;;;;5.28;4.45;;;;;;;;;;5056537;28;20027;-75
2022/09/25 09:42:09;;;;;;;4.55;4.15;;;;;;;;;;5059528;28;20047;-75
2022/09/25 09:44:34;;;;;;;7.70;6.30;;;;;;;;;;5057342;28;20323;-75
2022/09/25 09:47:05;;;;;;;7.53;6.63;;;;;;;;;;5057010;28;20067;-75
2022/09/25 09:49:35;;;;;;;6.97;6.28;;;;;;;;;;5055898;28;20020;-76
2022/09/25 09:52:06;;;;;;;3.60;3.30;;;;;;;;;;5059541;28;20027;-75
2022/09/25 09:54:39;;;;;;;4.32;3.70;;;;;;;;;;5041689;28;20028;-76
2022/09/25 09:57:11;;;;;;;4.65;3.60;;;;;;;;;;5059111;28;20029;-75
2022/09/25 09:59:43;;;;;;;5.65;4.97;;;;;;;;;;5058378;28;20035;-75
2022/09/25 10:02:28;;;;;;;7.47;4.65;;;;;;;;;;5058430;28;20027;-76
2022/09/25 10:04:54;;;;;;;4.28;3.88;;;;;;;;;;5045141;28;20602;-82
2022/09/25 10:07:21;;;;;;;4.70;4.10;;;;;;;;;;5060302;28;20280;-76
2022/09/25 10:09:48;;;;;;;5.50;5.00;;;;;;;;;;5058315;28;20028;-76
2022/09/25 10:12:20;;;;;;;3.28;2.90;;;;;;;;;;5060194;28;20043;-76
2022/09/25 10:14:46;;;;;;;21.92;18.92;;;;;;;;;;5055947;28;20398;-76
2022/09/25 10:17:11;;;;;;;16.13;14.52;;;;;;;;;;5057908;28;20029;-74
2022/09/25 10:19:47;;;;;;;2.60;2.40;;;;;;;;;;5057716;28;20020;-77
2022/09/25 10:22:19;;;;;;;4.03;2.53;;;;;;;;;;5060385;28;20047;-75
2022/09/25 10:24:54;;;;;;;3.45;3.10;;;;;;;;;;5058445;28;20032;-75
2022/09/25 10:27:19;;;;;;;6.13;5.53;;;;;;;;;;5060663;28;20067;-76
2022/09/25 10:29:44;;;;;;;4.10;3.50;;;;;;;;;;5058873;28;20060;-75
2022/09/25 10:32:10;;;;;;;2.60;2.40;;;;;;;;;;5057021;28;20101;-75
2022/09/25 10:34:35;;;;;;;3.03;2.70;;;;;;;;;;5060028;28;20032;-77
2022/09/25 10:37:13;;;;;;;4.70;4.20;;;;;;;;;;5058221;28;20119;-75
2022/09/25 10:39:39;;;;;;;4.78;4.30;;;;;;;;;;5058927;28;20106;-76
2022/09/25 10:42:24;;;;;;;8.38;7.57;;;;;;;;;;5056365;28;20020;-77
2022/09/25 10:44:50;;;;;;;11.40;10.20;;;;;;;;;;5057453;28;20060;-76
2022/09/25 10:50:23;;;;;;;10.55;8.65;;;;;;;;;;5055288;28;20521;-77
2022/09/25 10:52:48;;;;;;;4.05;2.92;;;;;;;;;;5055799;28;20027;-77
2022/09/25 10:55:35;;;;;;;2.72;2.30;;;;;;;;;;5058438;28;20024;-76
2022/09/25 10:58:09;;;;;;;5.10;4.60;;;;;;;;;;5058125;28;20039;-75
2022/09/25 11:00:55;;;;;;;4.18;3.65;;;;;;;;;;5056706;28;20021;-78
2022/09/25 11:03:22;;;;;;;3.38;3.08;;;;;;;;;;5059075;28;20122;-75
2022/09/25 11:06:08;;;;;;;2.80;2.60;;;;;;;;;;5059935;28;20455;-76
2022/09/25 11:08:36;;;;;;;3.35;3.05;;;;;;;;;;5048312;28;20048;-76
2022/09/25 11:11:02;;;;;;;4.22;2.83;;;;;;;;;;5060696;28;20024;-75
2022/09/25 11:13:35;;;;;;;3.47;3.17;;;;;;;;;;5059670;28;20024;-76
2022/09/25 11:16:02;;;;;;;7.10;5.95;;;;;;;;;;5058388;28;20056;-77
2022/09/25 11:18:30;;;;;;;8.27;4.75;;;;;;;;;;5060697;28;20024;-75
2022/09/25 11:21:02;;;;;;;3.83;3.03;;;;;;;;;;5061699;28;20115;-74
2022/09/25 11:23:32;;;;;;;4.78;4.38;;;;;;;;;;5059570;28;20059;-76
2022/09/25 11:25:58;;;;;;;4.57;4.28;;;;;;;;;;5061441;28;20047;-75
2022/09/25 11:28:33;;;;;;;5.55;5.15;;;;;;;;;;5061439;28;20360;-76
2022/09/25 11:31:02;;;;;;;4.55;4.15;;;;;;;;;;5062963;28;20085;-75
2022/09/25 11:33:27;;;;;;;5.87;3.33;;;;;;;;;;5062601;28;20048;-76
2022/09/25 11:35:55;;;;;;;6.78;4.25;;;;;;;;;;5060982;28;20082;-75
2022/09/25 11:41:35;;;;;;;4.43;3.42;;;;;;;;;;5062278;28;20055;-78
2022/09/25 11:44:16;;;;;;;3.70;3.40;;;;;;;;;;5043262;28;20062;-75
2022/09/25 11:46:45;;;;;;;3.72;2.90;;;;;;;;;;5060514;28;20051;-76
2022/09/25 11:49:13;;;;;;;3.38;2.88;;;;;;;;;;5061321;28;20430;-75
2022/09/25 11:51:57;;;;;;;3.00;2.80;;;;;;;;;;5062526;28;20640;-75
2022/09/25 11:54:51;;;;;;;2.90;2.30;;;;;;;;;;5062061;28;20107;-77
2022/09/25 11:57:17;;;;;;;3.13;2.90;;;;;;;;;;5019337;28;20128;-77
2022/09/25 11:59:42;;;;;;;2.70;2.50;;;;;;;;;;5018574;28;20140;-77
2022/09/25 12:02:20;;;;;;;3.17;2.88;;;;;;;;;;5019167;28;20152;-75
2022/09/25 12:04:46;;;;;;;4.32;3.92;;;;;;;;;;5017852;28;20128;-76
2022/09/25 12:07:38;;;;;;;4.88;4.40;;;;;;;;;;5019404;28;20124;-75
2022/09/25 12:10:06;;;;;;;5.28;2.83;;;;;;;;;;5015818;28;20079;-76
2022/09/25 12:12:36;;;;;;;4.03;3.63;;;;;;;;;;5017570;28;20084;-76
2022/09/25 12:15:10;;;;;;;5.38;4.88;;;;;;;;;;5019239;28;20419;-75
2022/09/25 12:17:35;;;;;;;11.80;10.70;;;;;;;;;;5017909;28;20144;-76
2022/09/25 12:20:23;;;;;;;7.32;6.65;;;;;;;;;;5003918;28;20168;-75
2022/09/25 12:22:55;;;;;;;8.13;7.43;;;;;;;;;;5016443;28;20029;-75
2022/09/25 12:25:20;;;;;;;3.22;2.92;;;;;;;;;;5014687;28;20173;-78
2022/09/25 12:27:48;;;;;;;3.30;3.00;;;;;;;;;;5017160;28;20448;-76
2022/09/25 12:30:18;;;;;;;3.42;3.13;;;;;;;;;;5015370;28;21698;-76
2022/09/25 12:32:43;;;;;;;3.50;3.20;;;;;;;;;;5020301;28;20037;-75
2022/09/25 12:35:17;;;;;;;3.30;2.95;;;;;;;;;;5059907;28;20151;-75
2022/09/25 12:38:04;;;;;;;4.00;3.17;;;;;;;;;;5059657;28;20143;-78
2022/09/25 12:40:37;;;;;;;6.05;2.78;;;;;;;;;;5061962;28;20029;-74
2022/09/25 12:43:10;;;;;;;4.30;3.42;;;;;;;;;;5060155;28;20039;-78
2022/09/25 12:45:44;;;;;;;3.42;2.60;;;;;;;;;;5060048;28;20083;-74
2022/09/25 12:48:13;;;;;;;6.60;5.95;;;;;;;;;;5060344;28;20109;-76
2022/09/25 12:51:02;;;;;;;4.60;4.20;;;;;;;;;;5060830;28;20040;-77
2022/09/25 12:53:33;;;;;;;3.28;2.78;;;;;;;;;;5062297;28;20111;-75
2022/09/25 12:56:03;;;;;;;3.40;2.88;;;;;;;;;;5060920;28;20031;-75
2022/09/25 12:58:36;;;;;;;3.50;2.47;;;;;;;;;;5059898;28;20039;-76
2022/09/25 13:01:13;;;;;;;3.30;3.08;;;;;;;;;;5060404;28;20029;-74
2022/09/25 13:03:39;;;;;;;5.65;5.15;;;;;;;;;;5062404;28;20047;-74
2022/09/25 13:06:04;;;;;;;7.78;4.65;;;;;;;;;;5060104;28;20046;-75
2022/09/25 13:08:36;;;;;;;5.65;4.18;;;;;;;;;;5059982;28;20111;-75
2022/09/25 13:11:04;;;;;;;3.47;3.08;;;;;;;;;;5059049;28;20047;-76
2022/09/25 13:13:34;;;;;;;4.47;3.80;;;;;;;;;;5060449;28;20067;-77
2022/09/25 13:16:00;;;;;;;3.55;3.10;;;;;;;;;;5059797;28;20037;-75
2022/09/25 13:18:27;;;;;;;5.20;2.90;;;;;;;;;;5059145;28;20031;-75
2022/09/25 13:21:15;;;;;;;3.20;2.90;;;;;;;;;;5058734;28;20045;-77
2022/09/25 13:23:40;;;;;;;3.15;2.72;;;;;;;;;;5050070;28;20036;-77
2022/09/25 13:26:15;;;;;;;3.05;2.35;;;;;;;;;;5055853;28;20082;-76
2022/09/25 13:28:48;;;;;;;3.13;2.80;;;;;;;;;;5059790;28;20324;-77
2022/09/25 13:31:20;;;;;;;3.97;3.03;;;;;;;;;;5058211;28;20028;-75
2022/09/25 13:33:49;;;;;;;2.90;2.63;;;;;;;;;;5057498;28;20032;-75
2022/09/25 13:36:24;;;;;;;3.85;2.70;;;;;;;;;;5059805;28;20043;-77
2022/09/25 13:41:54;;;;;;;4.38;3.80;;;;;;;;;;5058324;28;20117;-75
2022/09/25 13:44:40;;;;;;;3.20;2.65;;;;;;;;;;5057748;28;20049;-74
2022/09/25 13:47:24;;;;;;;7.55;3.33;;;;;;;;;;5057263;28;20032;-76
2022/09/25 13:50:12;;;;;;;4.22;2.80;;;;;;;;;;5060114;28;20119;-77
2022/09/25 13:52:38;;;;;;;3.80;2.88;;;;;;;;;;5048923;28;20029;-75
2022/09/25 13:55:11;;;;;;;2.65;2.45;;;;;;;;;;5058548;28;20058;-76
2022/09/25 13:57:56;;;;;;;5.05;4.47;;;;;;;;;;5060767;28;20025;-75
2022/09/25 14:00:22;;;;;;;9.80;6.93;;;;;;;;;;5059698;28;20107;-76
2022/09/25 14:02:47;;;;;;;2.58;2.33;;;;;;;;;;5059462;28;20445;-75
2022/09/25 14:05:18;;;;;;;2.63;2.42;;;;;;;;;;5058959;28;20035;-79
2022/09/25 14:07:44;;;;;;;2.33;2.10;;;;;;;;;;5059213;28;20044;-76
2022/09/25 14:10:11;;;;;;;4.28;2.38;;;;;;;;;;5060340;28;20020;-76
2022/09/25 14:12:44;;;;;;;4.03;3.60;;;;;;;;;;5060849;28;20125;-76
2022/09/25 14:15:17;;;;;;;2.63;2.40;;;;;;;;;;5058518;28;20089;-77
2022/09/25 14:17:43;;;;;;;3.40;3.10;;;;;;;;;;5060189;28;21330;-75
2022/09/25 14:20:25;;;;;;;2.88;2.28;;;;;;;;;;5059170;28;20040;-76
2022/09/25 14:22:55;;;;;;;3.30;2.88;;;;;;;;;;5060713;28;20028;-75
2022/09/25 14:25:31;;;;;;;2.85;2.53;;;;;;;;;;5059045;28;20089;-76
2022/09/25 14:27:57;;;;;;;2.88;2.67;;;;;;;;;;5058869;28;20029;-77
2022/09/25 14:30:27;;;;;;;2.78;2.58;;;;;;;;;;5056461;28;20428;-75
2022/09/25 14:32:59;;;;;;;2.50;2.30;;;;;;;;;;5056647;28;20082;-75
2022/09/25 14:35:34;;;;;;;3.67;2.63;;;;;;;;;;5055375;28;20024;-75
2022/09/25 14:38:34;;;;;;;2.88;2.65;;;;;;;;;;5060160;28;20032;-77
2022/09/25 14:41:11;;;;;;;2.70;2.50;;;;;;;;;;4977560;28;20130;-76
2022/09/25 14:43:39;;;;;;;2.70;2.22;;;;;;;;;;4975090;28;20110;-77
2022/09/25 14:46:04;;;;;;;3.47;2.22;;;;;;;;;;4976863;28;20049;-75
2022/09/25 14:48:48;;;;;;;2.47;2.22;;;;;;;;;;4979973;28;20018;-75
2022/09/25 14:51:33;;;;;;;2.10;1.90;;;;;;;;;;4977743;28;20045;-74
2022/09/25 14:54:03;;;;;;;3.92;2.40;;;;;;;;;;4975270;28;20143;-77
2022/09/25 14:56:32;;;;;;;3.55;2.60;;;;;;;;;;4979544;28;20038;-74
2022/09/25 14:58:59;;;;;;;3.53;2.28;;;;;;;;;;4977096;28;20086;-74
2022/09/25 15:01:26;;;;;;;2.65;2.45;;;;;;;;;;4977836;28;20145;-75
2022/09/25 15:03:53;;;;;;;2.63;2.20;;;;;;;;;;4975781;28;20042;-75
2022/09/25 15:06:27;;;;;;;2.15;2.05;;;;;;;;;;4976484;28;20083;-75
2022/09/25 15:08:52;;;;;;;2.85;2.40;;;;;;;;;;4976746;28;20038;-77
2022/09/25 15:11:18;;;;;;;2.42;2.22;;;;;;;;;;4977609;28;20114;-77